sensor_id;sensor_type;location;lat;lon;timestamp;pressure;altitude;pressure_sealevel;temperature;humidity
64388;BME280;50709;52.648;4.764;2023-04-25T00:00:19;101123.25;;;13.96;58.84
64388;BME280;50709;52.648;4.764;2023-04-25T00:02:45;101159.09;;;14.00;59.99
64388;BME280;50709;52.648;4.764;2023-04-25T00:05:12;101164.25;;;14.12;60.88
64388;BME280;50709;52.648;4.764;2023-04-25T00:07:38;101168.56;;;14.20;60.78
64388;BME280;50709;52.648;4.764;2023-04-25T00:10:04;101169.75;;;13.78;59.76
64388;BME280;50709;52.648;4.764;2023-04-25T00:12:30;101156.72;;;13.58;59.26
64388;BME280;50709;52.648;4.764;2023-04-25T00:14:55;101173.22;;;13.84;62.64
64388;BME280;50709;52.648;4.764;2023-04-25T00:17:22;101168.16;;;13.46;61.38
64388;BME280;50709;52.648;4.764;2023-04-25T00:19:49;101167.31;;;13.37;62.15
64388;BME280;50709;52.648;4.764;2023-04-25T00:22:15;101176.97;;;13.18;60.75
64388;BME280;50709;52.648;4.764;2023-04-25T00:24:41;101176.00;;;13.54;63.90
64388;BME280;50709;52.648;4.764;2023-04-25T00:27:06;101169.06;;;13.41;59.35
64388;BME280;50709;52.648;4.764;2023-04-25T00:29:32;101168.78;;;13.93;62.77
64388;BME280;50709;52.648;4.764;2023-04-25T00:31:58;101170.66;;;13.71;59.47
64388;BME280;50709;52.648;4.764;2023-04-25T00:34:23;101178.53;;;13.68;63.64
64388;BME280;50709;52.648;4.764;2023-04-25T00:36:49;101181.78;;;14.13;59.76
64388;BME280;50709;52.648;4.764;2023-04-25T00:39:14;101182.72;;;14.03;62.50
64388;BME280;50709;52.648;4.764;2023-04-25T00:41:40;101150.19;;;14.21;58.78
64388;BME280;50709;52.648;4.764;2023-04-25T00:44:08;101171.34;;;14.03;60.47
64388;BME280;50709;52.648;4.764;2023-04-25T00:46:33;101177.91;;;14.58;61.54
64388;BME280;50709;52.648;4.764;2023-04-25T00:49:00;101180.81;;;14.25;61.78
64388;BME280;50709;52.648;4.764;2023-04-25T00:51:25;101190.44;;;14.23;58.47
64388;BME280;50709;52.648;4.764;2023-04-25T00:53:52;101182.75;;;13.97;59.88
64388;BME280;50709;52.648;4.764;2023-04-25T00:56:18;101169.78;;;13.71;59.28
64388;BME280;50709;52.648;4.764;2023-04-25T00:58:43;101188.97;;;13.79;60.15
64388;BME280;50709;52.648;4.764;2023-04-25T01:01:09;101175.16;;;13.48;61.46
64388;BME280;50709;52.648;4.764;2023-04-25T01:03:37;101186.56;;;13.26;60.16
64388;BME280;50709;52.648;4.764;2023-04-25T01:06:08;101171.69;;;13.24;63.57
64388;BME280;50709;52.648;4.764;2023-04-25T01:08:34;101184.78;;;13.32;63.37
64388;BME280;50709;52.648;4.764;2023-04-25T01:11:00;101191.78;;;13.28;60.95
64388;BME280;50709;52.648;4.764;2023-04-25T01:13:25;101195.34;;;13.10;60.15
64388;BME280;50709;52.648;4.764;2023-04-25T01:15:51;101183.22;;;12.59;58.81
64388;BME280;50709;52.648;4.764;2023-04-25T01:18:16;101175.31;;;12.83;63.22
64388;BME280;50709;52.648;4.764;2023-04-25T01:20:43;101184.91;;;12.94;62.77
64388;BME280;50709;52.648;4.764;2023-04-25T01:23:09;101154.41;;;12.58;61.28
64388;BME280;50709;52.648;4.764;2023-04-25T01:25:35;101190.19;;;12.74;62.76
64388;BME280;50709;52.648;4.764;2023-04-25T01:28:01;101191.94;;;12.66;62.99
64388;BME280;50709;52.648;4.764;2023-04-25T01:30:26;101191.91;;;13.00;63.50
64388;BME280;50709;52.648;4.764;2023-04-25T01:32:55;101197.16;;;12.89;62.38
64388;BME280;50709;52.648;4.764;2023-04-25T01:35:21;101198.88;;;12.95;63.71
64388;BME280;50709;52.648;4.764;2023-04-25T01:37:47;101204.19;;;12.59;60.87
64388;BME280;50709;52.648;4.764;2023-04-25T01:40:12;101210.28;;;12.66;62.50
64388;BME280;50709;52.648;4.764;2023-04-25T01:42:41;101203.31;;;12.56;61.93
64388;BME280;50709;52.648;4.764;2023-04-25T01:45:07;101208.53;;;12.79;61.99
64388;BME280;50709;52.648;4.764;2023-04-25T01:47:33;101218.09;;;13.03;63.53
64388;BME280;50709;52.648;4.764;2023-04-25T01:50:01;101210.06;;;13.65;62.22
64388;BME280;50709;52.648;4.764;2023-04-25T01:52:27;101221.41;;;13.72;61.19
64388;BME280;50709;52.648;4.764;2023-04-25T01:54:53;101222.22;;;13.82;61.81
64388;BME280;50709;52.648;4.764;2023-04-25T01:57:19;101215.41;;;13.40;62.18
64388;BME280;50709;52.648;4.764;2023-04-25T01:59:45;101218.81;;;13.67;62.61
64388;BME280;50709;52.648;4.764;2023-04-25T02:02:11;101205.75;;;13.49;61.74
64388;BME280;50709;52.648;4.764;2023-04-25T02:04:36;101214.22;;;14.02;62.35
64388;BME280;50709;52.648;4.764;2023-04-25T02:07:03;101208.34;;;13.55;58.88
64388;BME280;50709;52.648;4.764;2023-04-25T02:09:28;101215.84;;;14.20;61.05
64388;BME280;50709;52.648;4.764;2023-04-25T02:11:53;101210.03;;;13.70;58.76
64388;BME280;50709;52.648;4.764;2023-04-25T02:14:19;101223.09;;;13.85;60.59
64388;BME280;50709;52.648;4.764;2023-04-25T02:16:44;101220.44;;;13.87;58.27
64388;BME280;50709;52.648;4.764;2023-04-25T02:19:11;101217.84;;;13.79;59.18
64388;BME280;50709;52.648;4.764;2023-04-25T02:21:37;101234.38;;;14.01;61.42
64388;BME280;50709;52.648;4.764;2023-04-25T02:24:03;101239.63;;;13.98;59.06
64388;BME280;50709;52.648;4.764;2023-04-25T02:26:29;101223.09;;;13.80;60.04
64388;BME280;50709;52.648;4.764;2023-04-25T02:28:56;101235.44;;;13.60;58.64
64388;BME280;50709;52.648;4.764;2023-04-25T02:31:22;101232.75;;;13.77;62.16
64388;BME280;50709;52.648;4.764;2023-04-25T02:33:48;101246.75;;;13.70;59.63
64388;BME280;50709;52.648;4.764;2023-04-25T02:36:13;101238.03;;;13.69;61.05
64388;BME280;50709;52.648;4.764;2023-04-25T02:38:39;101250.25;;;13.81;60.97
64388;BME280;50709;52.648;4.764;2023-04-25T02:41:04;101223.69;;;14.29;60.60
64388;BME280;50709;52.648;4.764;2023-04-25T02:43:30;101262.13;;;14.41;59.67
64388;BME280;50709;52.648;4.764;2023-04-25T02:45:55;101252.78;;;13.95;58.52
64388;BME280;50709;52.648;4.764;2023-04-25T02:48:21;101257.13;;;13.99;60.76
64388;BME280;50709;52.648;4.764;2023-04-25T02:50:46;101248.16;;;14.39;60.03
64388;BME280;50709;52.648;4.764;2023-04-25T02:53:12;101246.75;;;13.70;56.81
64388;BME280;50709;52.648;4.764;2023-04-25T02:55:37;101251.88;;;14.05;61.31
64388;BME280;50709;52.648;4.764;2023-04-25T02:58:02;101240.34;;;14.25;60.06
64388;BME280;50709;52.648;4.764;2023-04-25T03:00:28;101249.94;;;14.29;60.15
64388;BME280;50709;52.648;4.764;2023-04-25T03:02:54;101221.31;;;13.89;57.49
64388;BME280;50709;52.648;4.764;2023-04-25T03:05:20;101239.63;;;14.03;58.46
64388;BME280;50709;52.648;4.764;2023-04-25T03:07:46;101225.75;;;13.74;61.13
64388;BME280;50709;52.648;4.764;2023-04-25T03:10:11;101239.91;;;13.39;59.56
64388;BME280;50709;52.648;4.764;2023-04-25T03:12:37;101225.94;;;13.14;57.03
64388;BME280;50709;52.648;4.764;2023-04-25T03:15:02;101242.56;;;13.15;57.86
64388;BME280;50709;52.648;4.764;2023-04-25T03:17:28;101229.50;;;12.65;57.13
64388;BME280;50709;52.648;4.764;2023-04-25T03:19:54;101212.03;;;12.70;59.80
64388;BME280;50709;52.648;4.764;2023-04-25T03:22:20;101241.69;;;12.94;61.51
64388;BME280;50709;52.648;4.764;2023-04-25T03:24:45;101250.47;;;12.51;58.77
64388;BME280;50709;52.648;4.764;2023-04-25T03:27:11;101254.81;;;12.26;58.81
64388;BME280;50709;52.648;4.764;2023-04-25T03:29:36;101266.19;;;12.51;59.68
64388;BME280;50709;52.648;4.764;2023-04-25T03:32:02;101268.81;;;12.88;62.19
64388;BME280;50709;52.648;4.764;2023-04-25T03:34:27;101262.63;;;13.28;63.33
64388;BME280;50709;52.648;4.764;2023-04-25T03:36:53;101262.66;;;13.12;61.39
64388;BME280;50709;52.648;4.764;2023-04-25T03:39:18;101246.06;;;12.16;59.51
64388;BME280;50709;52.648;4.764;2023-04-25T03:41:43;101259.16;;;12.18;60.79
64388;BME280;50709;52.648;4.764;2023-04-25T03:44:09;101268.63;;;11.88;57.10
64388;BME280;50709;52.648;4.764;2023-04-25T03:46:34;101268.78;;;12.39;63.10
64388;BME280;50709;52.648;4.764;2023-04-25T03:49:00;101260.06;;;12.37;61.69
64388;BME280;50709;52.648;4.764;2023-04-25T03:51:25;101265.28;;;12.29;61.98
64388;BME280;50709;52.648;4.764;2023-04-25T03:53:51;101261.78;;;12.28;62.82
64388;BME280;50709;52.648;4.764;2023-04-25T03:56:17;101263.50;;;12.13;61.82
64388;BME280;50709;52.648;4.764;2023-04-25T03:58:42;101269.63;;;12.24;61.39
64388;BME280;50709;52.648;4.764;2023-04-25T04:01:08;101254.63;;;11.78;60.18
64388;BME280;50709;52.648;4.764;2023-04-25T04:03:34;101278.31;;;12.04;62.32
64388;BME280;50709;52.648;4.764;2023-04-25T04:06:01;101260.78;;;11.92;61.79
64388;BME280;50709;52.648;4.764;2023-04-25T04:08:27;101273.09;;;12.07;61.85
64388;BME280;50709;52.648;4.764;2023-04-25T04:10:53;101284.34;;;11.91;62.38
64388;BME280;50709;52.648;4.764;2023-04-25T04:13:18;101287.94;;;12.21;63.15
64388;BME280;50709;52.648;4.764;2023-04-25T04:15:43;101283.53;;;11.98;63.16
64388;BME280;50709;52.648;4.764;2023-04-25T04:18:09;101268.63;;;11.92;63.04
64388;BME280;50709;52.648;4.764;2023-04-25T04:20:34;101283.44;;;11.83;62.52
64388;BME280;50709;52.648;4.764;2023-04-25T04:23:00;101265.97;;;11.78;63.17
64388;BME280;50709;52.648;4.764;2023-04-25T04:25:26;101284.41;;;12.03;62.21
64388;BME280;50709;52.648;4.764;2023-04-25T04:27:51;101290.53;;;12.07;62.87
64388;BME280;50709;52.648;4.764;2023-04-25T04:30:23;101263.38;;;11.86;62.36
64388;BME280;50709;52.648;4.764;2023-04-25T04:32:50;101293.13;;;11.94;63.61
64388;BME280;50709;52.648;4.764;2023-04-25T04:35:15;101297.53;;;12.09;63.04
64388;BME280;50709;52.648;4.764;2023-04-25T04:37:41;101305.47;;;12.71;63.49
64388;BME280;50709;52.648;4.764;2023-04-25T04:40:07;101303.75;;;12.66;63.79
64388;BME280;50709;52.648;4.764;2023-04-25T04:42:33;101320.34;;;12.72;62.20
64388;BME280;50709;52.648;4.764;2023-04-25T04:44:58;101299.38;;;13.00;63.78
64388;BME280;50709;52.648;4.764;2023-04-25T04:47:24;101318.59;;;13.24;62.50
64388;BME280;50709;52.648;4.764;2023-04-25T04:49:50;101315.09;;;12.94;61.56
64388;BME280;50709;52.648;4.764;2023-04-25T04:52:16;101308.97;;;13.00;60.13
64388;BME280;50709;52.648;4.764;2023-04-25T04:54:41;101317.72;;;13.03;62.97
64388;BME280;50709;52.648;4.764;2023-04-25T04:57:07;101298.50;;;12.49;59.99
64388;BME280;50709;52.648;4.764;2023-04-25T04:59:32;101306.34;;;12.66;59.96
64388;BME280;50709;52.648;4.764;2023-04-25T05:01:57;101317.75;;;12.77;60.67
64388;BME280;50709;52.648;4.764;2023-04-25T05:04:23;101332.59;;;13.10;60.30
64388;BME280;50709;52.648;4.764;2023-04-25T05:06:48;101317.72;;;13.42;62.12
64388;BME280;50709;52.648;4.764;2023-04-25T05:09:13;101339.56;;;13.11;61.16
64388;BME280;50709;52.648;4.764;2023-04-25T05:11:40;101340.44;;;13.00;62.16
64388;BME280;50709;52.648;4.764;2023-04-25T05:14:05;101328.19;;;13.33;61.67
64388;BME280;50709;52.648;4.764;2023-04-25T05:16:30;101338.69;;;13.33;57.95
64388;BME280;50709;52.648;4.764;2023-04-25T05:18:56;101352.69;;;13.49;59.05
64388;BME280;50709;52.648;4.764;2023-04-25T05:21:21;101350.75;;;14.12;58.60
64388;BME280;50709;52.648;4.764;2023-04-25T05:24:06;101347.41;;;13.62;58.13
64388;BME280;50709;52.648;4.764;2023-04-25T05:26:32;101353.44;;;13.99;58.29
64388;BME280;50709;52.648;4.764;2023-04-25T05:28:57;101357.03;;;13.59;57.13
64388;BME280;50709;52.648;4.764;2023-04-25T05:31:23;101343.72;;;14.18;56.26
64388;BME280;50709;52.648;4.764;2023-04-25T05:33:48;101351.03;;;15.12;54.86
64388;BME280;50709;52.648;4.764;2023-04-25T05:36:14;101311.66;;;15.01;56.22
64388;BME280;50709;52.648;4.764;2023-04-25T05:38:39;101345.56;;;15.34;55.73
64388;BME280;50709;52.648;4.764;2023-04-25T05:41:05;101352.00;;;14.99;55.62
64388;BME280;50709;52.648;4.764;2023-04-25T05:43:30;101365.31;;;15.73;55.75
64388;BME280;50709;52.648;4.764;2023-04-25T05:45:55;101334.81;;;15.55;55.41
64388;BME280;50709;52.648;4.764;2023-04-25T05:48:21;101364.56;;;15.63;52.40
64388;BME280;50709;52.648;4.764;2023-04-25T05:50:46;101365.59;;;15.48;54.60
64388;BME280;50709;52.648;4.764;2023-04-25T05:53:12;101370.69;;;15.66;54.75
64388;BME280;50709;52.648;4.764;2023-04-25T05:55:37;101354.63;;;15.90;53.77
64388;BME280;50709;52.648;4.764;2023-04-25T05:58:02;101360.06;;;15.73;54.48
64388;BME280;50709;52.648;4.764;2023-04-25T06:00:28;101382.00;;;15.74;53.49
64388;BME280;50709;52.648;4.764;2023-04-25T06:02:53;101379.59;;;15.51;51.73
64388;BME280;50709;52.648;4.764;2023-04-25T06:05:19;101368.09;;;15.61;52.12
64388;BME280;50709;52.648;4.764;2023-04-25T06:07:45;101390.88;;;15.63;53.07
64388;BME280;50709;52.648;4.764;2023-04-25T06:10:10;101390.94;;;15.59;55.54
64388;BME280;50709;52.648;4.764;2023-04-25T06:12:36;101403.91;;;15.77;54.97
64388;BME280;50709;52.648;4.764;2023-04-25T06:15:01;101399.56;;;15.73;54.29
64388;BME280;50709;52.648;4.764;2023-04-25T06:17:27;101394.34;;;15.70;55.06
64388;BME280;50709;52.648;4.764;2023-04-25T06:19:52;101400.72;;;15.44;54.82
64388;BME280;50709;52.648;4.764;2023-04-25T06:22:17;101406.97;;;15.31;54.78
64388;BME280;50709;52.648;4.764;2023-04-25T06:24:43;101409.38;;;15.59;54.57
64388;BME280;50709;52.648;4.764;2023-04-25T06:27:08;101412.25;;;15.31;54.27
64388;BME280;50709;52.648;4.764;2023-04-25T06:29:33;101419.91;;;15.56;53.85
64388;BME280;50709;52.648;4.764;2023-04-25T06:31:59;101416.00;;;14.99;53.65
64388;BME280;50709;52.648;4.764;2023-04-25T06:34:24;101414.28;;;14.92;55.32
64388;BME280;50709;52.648;4.764;2023-04-25T06:36:50;101416.22;;;14.54;53.42
64388;BME280;50709;52.648;4.764;2023-04-25T06:39:15;101419.69;;;14.61;56.42
64388;BME280;50709;52.648;4.764;2023-04-25T06:41:41;101426.72;;;14.59;56.53
64388;BME280;50709;52.648;4.764;2023-04-25T06:44:06;101421.06;;;15.25;56.61
64388;BME280;50709;52.648;4.764;2023-04-25T06:46:32;101410.69;;;15.05;53.45
64388;BME280;50709;52.648;4.764;2023-04-25T06:48:57;101437.78;;;15.18;55.62
64388;BME280;50709;52.648;4.764;2023-04-25T06:51:22;101421.09;;;15.21;56.11
64388;BME280;50709;52.648;4.764;2023-04-25T06:53:49;101451.59;;;15.45;52.96
64388;BME280;50709;52.648;4.764;2023-04-25T06:56:15;101447.94;;;15.61;55.73
64388;BME280;50709;52.648;4.764;2023-04-25T06:58:41;101424.47;;;15.38;55.09
64388;BME280;50709;52.648;4.764;2023-04-25T07:01:06;101458.41;;;15.69;56.00
64388;BME280;50709;52.648;4.764;2023-04-25T07:03:32;101452.28;;;15.67;53.52
64388;BME280;50709;52.648;4.764;2023-04-25T07:05:57;101441.09;;;15.42;51.32
64388;BME280;50709;52.648;4.764;2023-04-25T07:08:22;101450.53;;;15.66;50.96
64388;BME280;50709;52.648;4.764;2023-04-25T07:10:48;101437.69;;;15.27;55.27
64388;BME280;50709;52.648;4.764;2023-04-25T07:13:13;101451.53;;;15.53;54.16
64388;BME280;50709;52.648;4.764;2023-04-25T07:15:39;101448.00;;;15.57;55.29
64388;BME280;50709;52.648;4.764;2023-04-25T07:18:04;101445.16;;;15.83;55.07
64388;BME280;50709;52.648;4.764;2023-04-25T07:20:33;101436.78;;;15.33;52.48
64388;BME280;50709;52.648;4.764;2023-04-25T07:22:58;101446.19;;;15.63;55.41
64388;BME280;50709;52.648;4.764;2023-04-25T07:25:23;101457.38;;;15.89;55.19
64388;BME280;50709;52.648;4.764;2023-04-25T07:27:49;101450.19;;;16.03;54.77
64388;BME280;50709;52.648;4.764;2023-04-25T07:30:15;101461.81;;;15.79;55.07
64388;BME280;50709;52.648;4.764;2023-04-25T07:32:40;101451.38;;;15.73;54.15
64388;BME280;50709;52.648;4.764;2023-04-25T07:35:06;101460.16;;;15.72;55.08
64388;BME280;50709;52.648;4.764;2023-04-25T07:37:33;101467.13;;;15.74;55.26
64388;BME280;50709;52.648;4.764;2023-04-25T07:39:58;101467.94;;;15.89;55.04
64388;BME280;50709;52.648;4.764;2023-04-25T07:42:24;101474.31;;;15.58;54.42
64388;BME280;50709;52.648;4.764;2023-04-25T07:44:49;101484.66;;;15.83;53.67
64388;BME280;50709;52.648;4.764;2023-04-25T07:47:16;101494.16;;;16.00;54.23
64388;BME280;50709;52.648;4.764;2023-04-25T07:49:44;101503.03;;;15.88;54.70
64388;BME280;50709;52.648;4.764;2023-04-25T07:52:10;101517.09;;;15.87;52.30
64388;BME280;50709;52.648;4.764;2023-04-25T07:54:36;101487.59;;;15.40;51.75
64388;BME280;50709;52.648;4.764;2023-04-25T07:57:01;101512.91;;;15.59;55.16
64388;BME280;50709;52.648;4.764;2023-04-25T07:59:27;101509.59;;;15.33;51.20
64388;BME280;50709;52.648;4.764;2023-04-25T08:01:53;101507.75;;;15.45;54.68
64388;BME280;50709;52.648;4.764;2023-04-25T08:04:18;101497.34;;;15.28;54.55
64388;BME280;50709;52.648;4.764;2023-04-25T08:06:43;101497.28;;;15.38;54.35
64388;BME280;50709;52.648;4.764;2023-04-25T08:09:09;101519.78;;;15.76;53.17
64388;BME280;50709;52.648;4.764;2023-04-25T08:11:35;101504.34;;;15.31;52.30
64388;BME280;50709;52.648;4.764;2023-04-25T08:14:01;101514.19;;;14.98;51.91
64388;BME280;50709;52.648;4.764;2023-04-25T08:16:27;101532.31;;;15.47;53.80
64388;BME280;50709;52.648;4.764;2023-04-25T08:18:52;101532.72;;;14.73;50.67
64388;BME280;50709;52.648;4.764;2023-04-25T08:21:18;101534.28;;;15.11;53.28
64388;BME280;50709;52.648;4.764;2023-04-25T08:23:43;101532.28;;;15.54;54.92
64388;BME280;50709;52.648;4.764;2023-04-25T08:26:08;101544.63;;;15.45;54.03
64388;BME280;50709;52.648;4.764;2023-04-25T08:28:34;101546.09;;;15.79;54.48
64388;BME280;50709;52.648;4.764;2023-04-25T08:30:59;101546.91;;;15.93;53.97
64388;BME280;50709;52.648;4.764;2023-04-25T08:33:25;101539.19;;;15.67;53.36
64388;BME280;50709;52.648;4.764;2023-04-25T08:35:50;101557.84;;;15.35;53.09
64388;BME280;50709;52.648;4.764;2023-04-25T08:38:17;101554.09;;;15.68;54.36
64388;BME280;50709;52.648;4.764;2023-04-25T08:40:43;101550.69;;;15.51;54.39
64388;BME280;50709;52.648;4.764;2023-04-25T08:43:10;101562.00;;;15.70;52.41
64388;BME280;50709;52.648;4.764;2023-04-25T08:45:41;101562.06;;;15.59;51.69
64388;BME280;50709;52.648;4.764;2023-04-25T08:48:11;101548.91;;;15.57;50.44
64388;BME280;50709;52.648;4.764;2023-04-25T08:53:13;101567.94;;;15.95;54.29
64388;BME280;50709;52.648;4.764;2023-04-25T08:55:43;101561.06;;;15.72;53.56
64388;BME280;50709;52.648;4.764;2023-04-25T08:58:10;101568.16;;;15.64;53.14
64388;BME280;50709;52.648;4.764;2023-04-25T09:00:36;101569.81;;;15.82;53.75
64388;BME280;50709;52.648;4.764;2023-04-25T09:03:01;101569.78;;;15.87;53.54
64388;BME280;50709;52.648;4.764;2023-04-25T09:05:28;101554.97;;;15.69;53.53
64388;BME280;50709;52.648;4.764;2023-04-25T09:07:54;101578.41;;;16.04;54.08
64388;BME280;50709;52.648;4.764;2023-04-25T09:10:19;101584.41;;;16.20;53.25
64388;BME280;50709;52.648;4.764;2023-04-25T09:12:45;101592.38;;;16.12;52.60
64388;BME280;50709;52.648;4.764;2023-04-25T09:15:19;101586.28;;;16.09;53.18
64388;BME280;50709;52.648;4.764;2023-04-25T09:17:44;101602.06;;;16.12;51.27
64388;BME280;50709;52.648;4.764;2023-04-25T09:20:12;101584.75;;;15.83;53.48
64388;BME280;50709;52.648;4.764;2023-04-25T09:22:38;101607.31;;;16.13;53.51
64388;BME280;50709;52.648;4.764;2023-04-25T09:25:13;101614.25;;;16.21;53.57
64388;BME280;50709;52.648;4.764;2023-04-25T09:27:51;101601.56;;;15.57;52.75
64388;BME280;50709;52.648;4.764;2023-04-25T09:30:17;101626.91;;;15.75;53.40
64388;BME280;50709;52.648;4.764;2023-04-25T09:32:43;101589.16;;;15.76;51.82
64388;BME280;50709;52.648;4.764;2023-04-25T09:35:08;101625.13;;;15.84;52.68
64388;BME280;50709;52.648;4.764;2023-04-25T09:37:34;101621.63;;;15.83;51.17
64388;BME280;50709;52.648;4.764;2023-04-25T09:40:00;101588.31;;;15.68;48.74
64388;BME280;50709;52.648;4.764;2023-04-25T09:42:31;101589.91;;;15.92;52.82
64388;BME280;50709;52.648;4.764;2023-04-25T09:44:57;101627.69;;;15.94;53.08
64388;BME280;50709;52.648;4.764;2023-04-25T09:47:27;101611.13;;;15.74;49.15
64388;BME280;50709;52.648;4.764;2023-04-25T09:49:54;101636.25;;;16.17;52.85
64388;BME280;50709;52.648;4.764;2023-04-25T09:52:21;101647.84;;;15.97;53.01
64388;BME280;50709;52.648;4.764;2023-04-25T09:54:48;101647.91;;;15.88;51.02
64388;BME280;50709;52.648;4.764;2023-04-25T09:57:18;101641.69;;;16.01;52.74
64388;BME280;50709;52.648;4.764;2023-04-25T09:59:46;101636.38;;;16.04;53.29
64388;BME280;50709;52.648;4.764;2023-04-25T10:02:14;101645.81;;;16.30;52.53
64388;BME280;50709;52.648;4.764;2023-04-25T10:04:41;101639.03;;;16.03;53.29
64388;BME280;50709;52.648;4.764;2023-04-25T10:07:07;101652.16;;;16.06;52.02
64388;BME280;50709;52.648;4.764;2023-04-25T10:09:36;101663.44;;;16.25;51.63
64388;BME280;50709;52.648;4.764;2023-04-25T10:12:02;101629.53;;;15.83;52.72
64388;BME280;50709;52.648;4.764;2023-04-25T10:14:30;101652.16;;;16.10;50.31
64388;BME280;50709;52.648;4.764;2023-04-25T10:16:57;101653.66;;;16.39;51.80
64388;BME280;50709;52.648;4.764;2023-04-25T10:19:24;101651.06;;;16.35;52.05
64388;BME280;50709;52.648;4.764;2023-04-25T10:22:20;101668.13;;;15.86;47.79
64388;BME280;50709;52.648;4.764;2023-04-25T10:24:49;101663.66;;;15.98;49.14
64388;BME280;50709;52.648;4.764;2023-04-25T10:27:16;101674.88;;;16.21;51.24
64388;BME280;50709;52.648;4.764;2023-04-25T10:29:41;101676.69;;;16.19;50.95
64388;BME280;50709;52.648;4.764;2023-04-25T10:32:08;101681.78;;;16.39;52.29
64388;BME280;50709;52.648;4.764;2023-04-25T10:34:39;101688.81;;;16.37;52.16
64388;BME280;50709;52.648;4.764;2023-04-25T10:37:08;101678.13;;;16.54;51.60
64388;BME280;50709;52.648;4.764;2023-04-25T10:39:34;101684.38;;;16.43;51.95
64388;BME280;50709;52.648;4.764;2023-04-25T10:42:01;101687.75;;;16.58;51.62
64388;BME280;50709;52.648;4.764;2023-04-25T10:44:31;101665.25;;;16.21;50.33
64388;BME280;50709;52.648;4.764;2023-04-25T10:46:59;101693.16;;;16.42;51.37
64388;BME280;50709;52.648;4.764;2023-04-25T10:49:32;101681.78;;;16.36;50.42
64388;BME280;50709;52.648;4.764;2023-04-25T10:54:46;101693.16;;;16.42;46.35
64388;BME280;50709;52.648;4.764;2023-04-25T10:59:58;101672.09;;;16.39;51.32
64388;BME280;50709;52.648;4.764;2023-04-25T11:02:26;101696.59;;;16.54;49.69
64388;BME280;50709;52.648;4.764;2023-04-25T11:04:53;101679.16;;;16.36;49.65
64388;BME280;50709;52.648;4.764;2023-04-25T11:10:03;101694.09;;;16.40;50.62
64388;BME280;50709;52.648;4.764;2023-04-25T11:12:30;101656.44;;;16.24;49.52
64388;BME280;50709;52.648;4.764;2023-04-25T11:15:04;101688.84;;;16.35;51.59
64388;BME280;50709;52.648;4.764;2023-04-25T11:17:29;101682.59;;;16.47;50.52
64388;BME280;50709;52.648;4.764;2023-04-25T11:19:55;101684.34;;;16.45;50.31
64388;BME280;50709;52.648;4.764;2023-04-25T11:22:22;101674.63;;;16.52;50.89
64388;BME280;50709;52.648;4.764;2023-04-25T11:24:48;101698.94;;;16.85;50.37
64388;BME280;50709;52.648;4.764;2023-04-25T11:27:14;101685.88;;;16.71;50.78
64388;BME280;50709;52.648;4.764;2023-04-25T11:29:40;101690.28;;;16.69;49.42
64388;BME280;50709;52.648;4.764;2023-04-25T11:32:05;101690.66;;;16.27;45.62
64388;BME280;50709;52.648;4.764;2023-04-25T11:34:32;101692.06;;;16.70;50.05
64388;BME280;50709;52.648;4.764;2023-04-25T11:37:01;101682.63;;;16.44;49.66
64388;BME280;50709;52.648;4.764;2023-04-25T11:39:28;101697.34;;;16.68;50.91
64388;BME280;50709;52.648;4.764;2023-04-25T11:41:54;101688.34;;;16.86;50.62
64388;BME280;50709;52.648;4.764;2023-04-25T11:44:20;101675.53;;;16.49;49.72
64388;BME280;50709;52.648;4.764;2023-04-25T11:46:46;101700.16;;;16.46;50.56
64388;BME280;50709;52.648;4.764;2023-04-25T11:49:12;101704.50;;;16.54;50.03
64388;BME280;50709;52.648;4.764;2023-04-25T11:51:46;101664.25;;;16.33;47.82
64388;BME280;50709;52.648;4.764;2023-04-25T11:54:15;101694.13;;;16.32;46.03
64388;BME280;50709;52.648;4.764;2023-04-25T11:56:44;101698.53;;;16.31;48.27
64388;BME280;50709;52.648;4.764;2023-04-25T11:59:10;101709.00;;;16.41;50.82
64388;BME280;50709;52.648;4.764;2023-04-25T12:01:38;101699.38;;;16.35;47.54
64388;BME280;50709;52.648;4.764;2023-04-25T12:04:14;101729.84;;;16.70;50.40
64388;BME280;50709;52.648;4.764;2023-04-25T12:06:41;101728.06;;;16.71;49.55
64388;BME280;50709;52.648;4.764;2023-04-25T12:09:08;101734.94;;;16.89;50.07
64388;BME280;50709;52.648;4.764;2023-04-25T12:11:54;101728.78;;;16.88;50.01
64388;BME280;50709;52.648;4.764;2023-04-25T12:14:31;101722.72;;;16.78;49.72
64388;BME280;50709;52.648;4.764;2023-04-25T12:17:01;101734.19;;;16.74;49.98
64388;BME280;50709;52.648;4.764;2023-04-25T12:19:32;101693.22;;;16.36;48.93
64388;BME280;50709;52.648;4.764;2023-04-25T12:22:00;101726.47;;;16.54;48.83
64388;BME280;50709;52.648;4.764;2023-04-25T12:24:26;101733.06;;;17.05;47.71
64388;BME280;50709;52.648;4.764;2023-04-25T12:26:54;101734.28;;;17.51;46.69
64388;BME280;50709;52.648;4.764;2023-04-25T12:29:25;101722.72;;;17.59;46.39
64388;BME280;50709;52.648;4.764;2023-04-25T12:31:51;101729.59;;;17.73;46.30
64388;BME280;50709;52.648;4.764;2023-04-25T12:34:18;101727.28;;;18.13;46.03
64388;BME280;50709;52.648;4.764;2023-04-25T12:36:44;101727.66;;;18.45;44.63
64388;BME280;50709;52.648;4.764;2023-04-25T12:39:21;101737.47;;;18.38;42.82
64388;BME280;50709;52.648;4.764;2023-04-25T12:41:47;101715.59;;;18.78;44.52
64388;BME280;50709;52.648;4.764;2023-04-25T12:44:13;101750.22;;;19.17;43.93
64388;BME280;50709;52.648;4.764;2023-04-25T12:46:39;101744.44;;;19.42;43.76
64388;BME280;50709;52.648;4.764;2023-04-25T12:49:06;101748.56;;;19.98;42.76
64388;BME280;50709;52.648;4.764;2023-04-25T12:51:33;101748.44;;;19.62;40.77
64388;BME280;50709;52.648;4.764;2023-04-25T12:53:59;101768.56;;;20.13;42.92
64388;BME280;50709;52.648;4.764;2023-04-25T12:56:26;101755.63;;;20.37;42.57